sensor_id;sensor_type;location;lat;lon;timestamp;P1;durP1;ratioP1;P2;durP2;ratioP2
39452;SDS011;25154;-33.684;151.102;2023-01-04T00:01:37;9.23;;;1.67;;
39452;SDS011;25154;-33.684;151.102;2023-01-04T00:06:39;7.80;;;1.50;;
39452;SDS011;25154;-33.684;151.102;2023-01-04T00:11:42;6.13;;;1.90;;
39452;SDS011;25154;-33.684;151.102;2023-01-04T00:16:44;7.18;;;1.40;;
39452;SDS011;25154;-33.684;151.102;2023-01-04T00:21:48;10.10;;;1.60;;
39452;SDS011;25154;-33.684;151.102;2023-01-04T00:26:51;7.53;;;1.50;;
39452;SDS011;25154;-33.684;151.102;2023-01-04T00:31:54;8.15;;;1.90;;
39452;SDS011;25154;-33.684;151.102;2023-01-04T00:36:56;4.85;;;1.40;;
39452;SDS011;25154;-33.684;151.102;2023-01-04T00:41:59;6.30;;;1.63;;
39452;SDS011;25154;-33.684;151.102;2023-01-04T00:47:05;8.90;;;1.48;;
39452;SDS011;25154;-33.684;151.102;2023-01-04T00:52:08;8.32;;;1.73;;
39452;SDS011;25154;-33.684;151.102;2023-01-04T00:57:10;4.03;;;1.20;;
39452;SDS011;25154;-33.684;151.102;2023-01-04T01:02:13;4.30;;;1.20;;
39452;SDS011;25154;-33.684;151.102;2023-01-04T01:07:16;4.97;;;1.38;;
39452;SDS011;25154;-33.684;151.102;2023-01-04T01:12:19;4.13;;;1.30;;
39452;SDS011;25154;-33.684;151.102;2023-01-04T01:17:22;6.65;;;1.35;;
39452;SDS011;25154;-33.684;151.102;2023-01-04T01:22:24;3.65;;;1.27;;
39452;SDS011;25154;-33.684;151.102;2023-01-04T01:27:27;6.47;;;1.30;;
39452;SDS011;25154;-33.684;151.102;2023-01-04T01:32:30;7.03;;;1.50;;
39452;SDS011;25154;-33.684;151.102;2023-01-04T01:37:32;6.43;;;1.40;;
39452;SDS011;25154;-33.684;151.102;2023-01-04T01:42:35;8.43;;;2.15;;
39452;SDS011;25154;-33.684;151.102;2023-01-04T01:47:40;5.40;;;1.50;;
39452;SDS011;25154;-33.684;151.102;2023-01-04T01:52:45;7.78;;;1.75;;
39452;SDS011;25154;-33.684;151.102;2023-01-04T01:57:49;6.72;;;1.40;;
39452;SDS011;25154;-33.684;151.102;2023-01-04T02:03:04;5.20;;;1.40;;
39452;SDS011;25154;-33.684;151.102;2023-01-04T02:08:16;4.05;;;1.50;;
39452;SDS011;25154;-33.684;151.102;2023-01-04T02:13:23;5.97;;;1.33;;
39452;SDS011;25154;-33.684;151.102;2023-01-04T02:18:52;5.28;;;1.20;;
39452;SDS011;25154;-33.684;151.102;2023-01-04T02:34:52;3.90;;;1.23;;
39452;SDS011;25154;-33.684;151.102;2023-01-04T02:45:18;6.10;;;1.27;;
39452;SDS011;25154;-33.684;151.102;2023-01-04T03:00:53;5.38;;;1.40;;
39452;SDS011;25154;-33.684;151.102;2023-01-04T03:07:11;7.55;;;1.77;;
39452;SDS011;25154;-33.684;151.102;2023-01-04T03:11:57;9.38;;;1.55;;
39452;SDS011;25154;-33.684;151.102;2023-01-04T03:17:37;7.45;;;1.25;;
39452;SDS011;25154;-33.684;151.102;2023-01-04T03:22:46;5.47;;;1.33;;
39452;SDS011;25154;-33.684;151.102;2023-01-04T03:28:17;7.63;;;1.45;;
39452;SDS011;25154;-33.684;151.102;2023-01-04T03:33:41;6.47;;;1.40;;
39452;SDS011;25154;-33.684;151.102;2023-01-04T03:39:07;7.63;;;1.52;;
39452;SDS011;25154;-33.684;151.102;2023-01-04T03:44:53;7.00;;;1.50;;
39452;SDS011;25154;-33.684;151.102;2023-01-04T03:50:35;13.90;;;2.03;;
39452;SDS011;25154;-33.684;151.102;2023-01-04T03:55:46;6.57;;;1.92;;
39452;SDS011;25154;-33.684;151.102;2023-01-04T04:00:50;14.07;;;1.75;;
39452;SDS011;25154;-33.684;151.102;2023-01-04T04:05:53;6.72;;;1.60;;
39452;SDS011;25154;-33.684;151.102;2023-01-04T04:11:14;11.02;;;1.85;;
39452;SDS011;25154;-33.684;151.102;2023-01-04T04:16:32;10.32;;;1.80;;
39452;SDS011;25154;-33.684;151.102;2023-01-04T04:21:35;7.07;;;2.00;;
39452;SDS011;25154;-33.684;151.102;2023-01-04T04:26:38;11.38;;;2.05;;
39452;SDS011;25154;-33.684;151.102;2023-01-04T04:31:41;10.75;;;2.03;;
39452;SDS011;25154;-33.684;151.102;2023-01-04T04:36:44;8.05;;;1.67;;
39452;SDS011;25154;-33.684;151.102;2023-01-04T04:41:46;14.40;;;2.55;;
39452;SDS011;25154;-33.684;151.102;2023-01-04T04:46:49;11.45;;;2.20;;
39452;SDS011;25154;-33.684;151.102;2023-01-04T04:51:52;7.07;;;1.67;;
39452;SDS011;25154;-33.684;151.102;2023-01-04T04:56:54;10.73;;;2.05;;
39452;SDS011;25154;-33.684;151.102;2023-01-04T05:01:57;11.85;;;2.08;;
39452;SDS011;25154;-33.684;151.102;2023-01-04T05:07:00;8.73;;;1.90;;
39452;SDS011;25154;-33.684;151.102;2023-01-04T05:12:03;13.75;;;2.17;;
39452;SDS011;25154;-33.684;151.102;2023-01-04T05:17:24;9.35;;;2.60;;
39452;SDS011;25154;-33.684;151.102;2023-01-04T05:22:26;9.68;;;2.00;;
39452;SDS011;25154;-33.684;151.102;2023-01-04T05:27:32;6.93;;;1.95;;
39452;SDS011;25154;-33.684;151.102;2023-01-04T05:32:36;6.50;;;1.88;;
39452;SDS011;25154;-33.684;151.102;2023-01-04T05:37:40;4.80;;;1.67;;
39452;SDS011;25154;-33.684;151.102;2023-01-04T05:42:44;8.05;;;1.52;;
39452;SDS011;25154;-33.684;151.102;2023-01-04T05:47:49;12.52;;;1.70;;
39452;SDS011;25154;-33.684;151.102;2023-01-04T05:52:53;5.20;;;1.50;;
39452;SDS011;25154;-33.684;151.102;2023-01-04T05:57:57;5.10;;;1.55;;
39452;SDS011;25154;-33.684;151.102;2023-01-04T06:03:00;8.88;;;1.70;;
39452;SDS011;25154;-33.684;151.102;2023-01-04T06:08:04;7.43;;;1.75;;
39452;SDS011;25154;-33.684;151.102;2023-01-04T06:13:07;10.20;;;1.55;;
39452;SDS011;25154;-33.684;151.102;2023-01-04T06:18:12;9.15;;;1.98;;
39452;SDS011;25154;-33.684;151.102;2023-01-04T06:23:16;10.88;;;1.75;;
39452;SDS011;25154;-33.684;151.102;2023-01-04T06:28:21;10.43;;;1.70;;
39452;SDS011;25154;-33.684;151.102;2023-01-04T06:33:24;9.70;;;1.50;;
39452;SDS011;25154;-33.684;151.102;2023-01-04T06:38:28;8.27;;;1.73;;
39452;SDS011;25154;-33.684;151.102;2023-01-04T06:43:31;10.07;;;1.40;;
39452;SDS011;25154;-33.684;151.102;2023-01-04T06:48:34;7.43;;;1.52;;
39452;SDS011;25154;-33.684;151.102;2023-01-04T06:53:36;7.20;;;1.73;;
39452;SDS011;25154;-33.684;151.102;2023-01-04T06:58:39;4.68;;;1.13;;
39452;SDS011;25154;-33.684;151.102;2023-01-04T07:03:41;2.45;;;1.08;;
39452;SDS011;25154;-33.684;151.102;2023-01-04T07:08:43;2.15;;;0.80;;
39452;SDS011;25154;-33.684;151.102;2023-01-04T07:13:46;2.00;;;0.88;;
39452;SDS011;25154;-33.684;151.102;2023-01-04T07:18:48;1.55;;;0.80;;
39452;SDS011;25154;-33.684;151.102;2023-01-04T07:23:50;3.78;;;1.08;;
39452;SDS011;25154;-33.684;151.102;2023-01-04T07:28:53;0.98;;;0.80;;
39452;SDS011;25154;-33.684;151.102;2023-01-04T07:34:14;4.75;;;1.00;;
39452;SDS011;25154;-33.684;151.102;2023-01-04T07:39:17;3.35;;;0.98;;
39452;SDS011;25154;-33.684;151.102;2023-01-04T07:44:20;4.57;;;0.82;;
39452;SDS011;25154;-33.684;151.102;2023-01-04T07:49:25;0.98;;;0.70;;
39452;SDS011;25154;-33.684;151.102;2023-01-04T07:54:27;1.95;;;0.80;;
39452;SDS011;25154;-33.684;151.102;2023-01-04T07:59:29;1.33;;;0.82;;
39452;SDS011;25154;-33.684;151.102;2023-01-04T08:04:32;3.03;;;0.80;;
39452;SDS011;25154;-33.684;151.102;2023-01-04T08:09:34;1.88;;;0.80;;
39452;SDS011;25154;-33.684;151.102;2023-01-04T08:14:36;2.25;;;0.80;;
39452;SDS011;25154;-33.684;151.102;2023-01-04T08:19:39;4.93;;;1.40;;
39452;SDS011;25154;-33.684;151.102;2023-01-04T08:24:41;3.40;;;0.85;;
39452;SDS011;25154;-33.684;151.102;2023-01-04T08:29:43;3.35;;;0.77;;
39452;SDS011;25154;-33.684;151.102;2023-01-04T08:34:46;2.13;;;0.80;;
39452;SDS011;25154;-33.684;151.102;2023-01-04T08:39:48;8.00;;;1.10;;
39452;SDS011;25154;-33.684;151.102;2023-01-04T08:44:51;4.57;;;1.00;;
39452;SDS011;25154;-33.684;151.102;2023-01-04T08:49:53;2.63;;;0.95;;
39452;SDS011;25154;-33.684;151.102;2023-01-04T08:54:56;6.00;;;1.30;;
39452;SDS011;25154;-33.684;151.102;2023-01-04T08:59:58;13.38;;;1.90;;
39452;SDS011;25154;-33.684;151.102;2023-01-04T09:05:01;9.82;;;2.03;;
39452;SDS011;25154;-33.684;151.102;2023-01-04T09:10:03;10.05;;;2.08;;
39452;SDS011;25154;-33.684;151.102;2023-01-04T09:15:06;10.82;;;2.10;;
39452;SDS011;25154;-33.684;151.102;2023-01-04T09:20:09;8.48;;;1.40;;
39452;SDS011;25154;-33.684;151.102;2023-01-04T09:25:11;8.70;;;1.90;;
39452;SDS011;25154;-33.684;151.102;2023-01-04T09:30:14;5.55;;;1.42;;
39452;SDS011;25154;-33.684;151.102;2023-01-04T09:35:16;2.95;;;0.90;;
39452;SDS011;25154;-33.684;151.102;2023-01-04T09:40:20;4.32;;;1.40;;
39452;SDS011;25154;-33.684;151.102;2023-01-04T09:45:27;4.07;;;1.25;;
39452;SDS011;25154;-33.684;151.102;2023-01-04T09:50:30;2.33;;;0.77;;
39452;SDS011;25154;-33.684;151.102;2023-01-04T09:55:43;2.63;;;0.95;;
39452;SDS011;25154;-33.684;151.102;2023-01-04T10:00:56;2.42;;;0.80;;
39452;SDS011;25154;-33.684;151.102;2023-01-04T10:06:09;3.60;;;0.80;;
39452;SDS011;25154;-33.684;151.102;2023-01-04T10:21:51;2.35;;;0.70;;
39452;SDS011;25154;-33.684;151.102;2023-01-04T10:27:16;1.52;;;0.70;;
39452;SDS011;25154;-33.684;151.102;2023-01-04T10:32:45;1.90;;;0.60;;
39452;SDS011;25154;-33.684;151.102;2023-01-04T10:37:57;6.00;;;0.73;;
39452;SDS011;25154;-33.684;151.102;2023-01-04T10:43:03;2.90;;;0.60;;
39452;SDS011;25154;-33.684;151.102;2023-01-04T10:53:40;5.05;;;0.70;;
39452;SDS011;25154;-33.684;151.102;2023-01-04T10:58:52;3.97;;;1.05;;
39452;SDS011;25154;-33.684;151.102;2023-01-04T11:09:03;3.97;;;0.77;;
39452;SDS011;25154;-33.684;151.102;2023-01-04T11:14:25;1.88;;;0.70;;
39452;SDS011;25154;-33.684;151.102;2023-01-04T11:19:28;2.15;;;0.80;;
39452;SDS011;25154;-33.684;151.102;2023-01-04T11:24:31;2.55;;;0.93;;
39452;SDS011;25154;-33.684;151.102;2023-01-04T11:34:55;1.27;;;0.70;;
39452;SDS011;25154;-33.684;151.102;2023-01-04T11:40:20;3.33;;;0.80;;
39452;SDS011;25154;-33.684;151.102;2023-01-04T11:45:25;1.67;;;0.70;;
39452;SDS011;25154;-33.684;151.102;2023-01-04T11:50:35;5.13;;;0.90;;
39452;SDS011;25154;-33.684;151.102;2023-01-04T11:55:38;3.63;;;0.90;;
39452;SDS011;25154;-33.684;151.102;2023-01-04T12:00:51;5.03;;;0.77;;
39452;SDS011;25154;-33.684;151.102;2023-01-04T12:05:55;3.35;;;0.90;;
39452;SDS011;25154;-33.684;151.102;2023-01-04T12:10:59;4.28;;;1.00;;
39452;SDS011;25154;-33.684;151.102;2023-01-04T12:21:22;2.90;;;0.70;;
39452;SDS011;25154;-33.684;151.102;2023-01-04T12:26:26;3.20;;;0.80;;
39452;SDS011;25154;-33.684;151.102;2023-01-04T12:31:30;1.67;;;0.75;;
39452;SDS011;25154;-33.684;151.102;2023-01-04T12:46:41;3.55;;;0.77;;
39452;SDS011;25154;-33.684;151.102;2023-01-04T13:02:20;3.17;;;0.88;;
39452;SDS011;25154;-33.684;151.102;2023-01-04T13:17:46;2.43;;;1.10;;
39452;SDS011;25154;-33.684;151.102;2023-01-04T13:22:54;2.70;;;1.00;;
39452;SDS011;25154;-33.684;151.102;2023-01-04T13:28:00;3.10;;;1.10;;
39452;SDS011;25154;-33.684;151.102;2023-01-04T13:33:17;2.03;;;0.80;;
39452;SDS011;25154;-33.684;151.102;2023-01-04T13:38:21;2.05;;;0.95;;
39452;SDS011;25154;-33.684;151.102;2023-01-04T13:48:40;2.75;;;1.00;;
39452;SDS011;25154;-33.684;151.102;2023-01-04T13:53:51;1.65;;;0.80;;
39452;SDS011;25154;-33.684;151.102;2023-01-04T13:58:55;2.08;;;0.80;;
39452;SDS011;25154;-33.684;151.102;2023-01-04T14:03:58;3.88;;;0.80;;
39452;SDS011;25154;-33.684;151.102;2023-01-04T14:24:55;2.55;;;1.00;;
39452;SDS011;25154;-33.684;151.102;2023-01-04T14:29:59;2.42;;;1.05;;
39452;SDS011;25154;-33.684;151.102;2023-01-04T14:35:21;4.80;;;1.15;;
39452;SDS011;25154;-33.684;151.102;2023-01-04T14:40:25;2.90;;;0.90;;
39452;SDS011;25154;-33.684;151.102;2023-01-04T14:45:31;5.87;;;1.20;;
39452;SDS011;25154;-33.684;151.102;2023-01-04T14:50:34;7.40;;;1.38;;
39452;SDS011;25154;-33.684;151.102;2023-01-04T14:55:36;4.38;;;0.95;;
39452;SDS011;25154;-33.684;151.102;2023-01-04T15:00:40;3.92;;;1.38;;
39452;SDS011;25154;-33.684;151.102;2023-01-04T15:05:44;8.13;;;1.48;;
39452;SDS011;25154;-33.684;151.102;2023-01-04T15:10:47;4.75;;;1.10;;
39452;SDS011;25154;-33.684;151.102;2023-01-04T15:15:50;5.75;;;1.17;;
39452;SDS011;25154;-33.684;151.102;2023-01-04T15:20:53;9.73;;;1.70;;
39452;SDS011;25154;-33.684;151.102;2023-01-04T15:25:56;9.75;;;1.55;;
39452;SDS011;25154;-33.684;151.102;2023-01-04T15:31:07;12.35;;;2.42;;
39452;SDS011;25154;-33.684;151.102;2023-01-04T15:36:13;12.18;;;2.50;;
39452;SDS011;25154;-33.684;151.102;2023-01-04T15:41:16;15.05;;;1.95;;
39452;SDS011;25154;-33.684;151.102;2023-01-04T15:46:37;14.75;;;2.58;;
39452;SDS011;25154;-33.684;151.102;2023-01-04T15:51:40;20.35;;;2.70;;
39452;SDS011;25154;-33.684;151.102;2023-01-04T15:56:43;22.90;;;2.67;;
39452;SDS011;25154;-33.684;151.102;2023-01-04T16:01:46;15.98;;;2.92;;
39452;SDS011;25154;-33.684;151.102;2023-01-04T16:06:50;15.40;;;2.28;;
39452;SDS011;25154;-33.684;151.102;2023-01-04T16:11:54;13.80;;;2.10;;
39452;SDS011;25154;-33.684;151.102;2023-01-04T16:17:14;16.63;;;2.75;;
39452;SDS011;25154;-33.684;151.102;2023-01-04T16:22:17;17.58;;;2.97;;
39452;SDS011;25154;-33.684;151.102;2023-01-04T16:27:20;16.20;;;2.30;;
39452;SDS011;25154;-33.684;151.102;2023-01-04T16:32:23;13.20;;;2.50;;
39452;SDS011;25154;-33.684;151.102;2023-01-04T16:37:26;10.45;;;2.22;;
39452;SDS011;25154;-33.684;151.102;2023-01-04T16:42:30;12.32;;;2.55;;
39452;SDS011;25154;-33.684;151.102;2023-01-04T16:47:40;11.90;;;2.10;;
39452;SDS011;25154;-33.684;151.102;2023-01-04T16:52:44;9.25;;;2.42;;
39452;SDS011;25154;-33.684;151.102;2023-01-04T16:57:46;10.10;;;2.33;;
39452;SDS011;25154;-33.684;151.102;2023-01-04T17:02:49;13.30;;;2.40;;
39452;SDS011;25154;-33.684;151.102;2023-01-04T17:07:52;10.88;;;2.25;;
39452;SDS011;25154;-33.684;151.102;2023-01-04T17:12:54;12.77;;;2.25;;
39452;SDS011;25154;-33.684;151.102;2023-01-04T17:17:57;11.70;;;2.25;;
39452;SDS011;25154;-33.684;151.102;2023-01-04T17:23:00;13.98;;;2.00;;
39452;SDS011;25154;-33.684;151.102;2023-01-04T17:28:03;7.43;;;1.90;;
39452;SDS011;25154;-33.684;151.102;2023-01-04T17:33:05;16.92;;;2.00;;
39452;SDS011;25154;-33.684;151.102;2023-01-04T17:38:11;21.00;;;2.40;;
39452;SDS011;25154;-33.684;151.102;2023-01-04T17:43:13;13.82;;;2.05;;
39452;SDS011;25154;-33.684;151.102;2023-01-04T17:48:16;10.57;;;2.70;;
39452;SDS011;25154;-33.684;151.102;2023-01-04T17:53:19;13.65;;;2.50;;
39452;SDS011;25154;-33.684;151.102;2023-01-04T17:58:22;10.60;;;2.20;;
39452;SDS011;25154;-33.684;151.102;2023-01-04T18:03:24;7.93;;;2.10;;
39452;SDS011;25154;-33.684;151.102;2023-01-04T18:08:27;20.40;;;2.25;;
39452;SDS011;25154;-33.684;151.102;2023-01-04T18:13:30;8.25;;;1.75;;
39452;SDS011;25154;-33.684;151.102;2023-01-04T18:18:35;16.52;;;1.90;;
39452;SDS011;25154;-33.684;151.102;2023-01-04T18:23:38;15.85;;;1.98;;
39452;SDS011;25154;-33.684;151.102;2023-01-04T18:28:41;9.57;;;1.63;;
39452;SDS011;25154;-33.684;151.102;2023-01-04T18:33:49;12.15;;;1.92;;
39452;SDS011;25154;-33.684;151.102;2023-01-04T18:38:57;11.00;;;2.33;;
39452;SDS011;25154;-33.684;151.102;2023-01-04T18:43:59;13.38;;;1.90;;
39452;SDS011;25154;-33.684;151.102;2023-01-04T18:49:02;6.68;;;1.63;;
39452;SDS011;25154;-33.684;151.102;2023-01-04T18:54:05;7.88;;;1.65;;
39452;SDS011;25154;-33.684;151.102;2023-01-04T18:59:08;16.60;;;1.60;;
39452;SDS011;25154;-33.684;151.102;2023-01-04T19:04:11;12.68;;;2.17;;
39452;SDS011;25154;-33.684;151.102;2023-01-04T19:09:15;7.70;;;1.90;;
39452;SDS011;25154;-33.684;151.102;2023-01-04T19:14:18;17.80;;;1.80;;
39452;SDS011;25154;-33.684;151.102;2023-01-04T19:19:21;18.05;;;3.25;;
39452;SDS011;25154;-33.684;151.102;2023-01-04T19:24:24;13.02;;;2.00;;
39452;SDS011;25154;-33.684;151.102;2023-01-04T19:29:28;7.95;;;1.48;;
39452;SDS011;25154;-33.684;151.102;2023-01-04T19:34:31;9.68;;;1.80;;
39452;SDS011;25154;-33.684;151.102;2023-01-04T19:39:33;15.48;;;2.05;;
39452;SDS011;25154;-33.684;151.102;2023-01-04T19:44:36;10.95;;;1.65;;
39452;SDS011;25154;-33.684;151.102;2023-01-04T19:49:39;11.18;;;2.47;;
39452;SDS011;25154;-33.684;151.102;2023-01-04T19:54:42;8.55;;;1.75;;
39452;SDS011;25154;-33.684;151.102;2023-01-04T19:59:44;8.50;;;1.65;;
39452;SDS011;25154;-33.684;151.102;2023-01-04T20:04:47;15.40;;;2.30;;
39452;SDS011;25154;-33.684;151.102;2023-01-04T20:09:50;9.70;;;1.80;;
39452;SDS011;25154;-33.684;151.102;2023-01-04T20:14:53;17.52;;;2.33;;
39452;SDS011;25154;-33.684;151.102;2023-01-04T20:19:56;13.70;;;1.83;;
39452;SDS011;25154;-33.684;151.102;2023-01-04T20:24:59;7.43;;;1.42;;
39452;SDS011;25154;-33.684;151.102;2023-01-04T20:30:01;12.85;;;1.73;;
39452;SDS011;25154;-33.684;151.102;2023-01-04T20:35:04;7.22;;;1.40;;
39452;SDS011;25154;-33.684;151.102;2023-01-04T20:40:08;7.57;;;1.60;;
39452;SDS011;25154;-33.684;151.102;2023-01-04T20:45:11;15.30;;;1.80;;
39452;SDS011;25154;-33.684;151.102;2023-01-04T20:50:13;11.73;;;1.90;;
39452;SDS011;25154;-33.684;151.102;2023-01-04T20:55:16;5.43;;;1.33;;
39452;SDS011;25154;-33.684;151.102;2023-01-04T21:00:19;10.57;;;1.60;;
39452;SDS011;25154;-33.684;151.102;2023-01-04T21:05:22;10.35;;;1.63;;
39452;SDS011;25154;-33.684;151.102;2023-01-04T21:10:29;10.27;;;1.65;;
39452;SDS011;25154;-33.684;151.102;2023-01-04T21:15:33;7.78;;;1.60;;
39452;SDS011;25154;-33.684;151.102;2023-01-04T21:20:40;20.98;;;2.35;;
39452;SDS011;25154;-33.684;151.102;2023-01-04T21:25:45;14.23;;;2.88;;
39452;SDS011;25154;-33.684;151.102;2023-01-04T21:30:49;11.57;;;2.17;;
39452;SDS011;25154;-33.684;151.102;2023-01-04T21:35:52;12.73;;;1.80;;
39452;SDS011;25154;-33.684;151.102;2023-01-04T21:40:55;18.30;;;2.78;;
39452;SDS011;25154;-33.684;151.102;2023-01-04T21:46:02;14.73;;;2.38;;
39452;SDS011;25154;-33.684;151.102;2023-01-04T21:51:10;8.40;;;1.92;;
39452;SDS011;25154;-33.684;151.102;2023-01-04T21:56:15;14.45;;;2.80;;
39452;SDS011;25154;-33.684;151.102;2023-01-04T22:01:22;9.68;;;2.10;;
39452;SDS011;25154;-33.684;151.102;2023-01-04T22:06:27;10.40;;;2.10;;
39452;SDS011;25154;-33.684;151.102;2023-01-04T22:11:32;15.10;;;2.17;;
39452;SDS011;25154;-33.684;151.102;2023-01-04T22:16:36;20.50;;;3.85;;
39452;SDS011;25154;-33.684;151.102;2023-01-04T22:21:40;10.82;;;2.17;;
39452;SDS011;25154;-33.684;151.102;2023-01-04T22:26:43;17.67;;;2.55;;
39452;SDS011;25154;-33.684;151.102;2023-01-04T22:31:47;26.83;;;1.90;;
39452;SDS011;25154;-33.684;151.102;2023-01-04T22:36:51;11.25;;;1.55;;
39452;SDS011;25154;-33.684;151.102;2023-01-04T22:41:53;17.52;;;2.15;;
39452;SDS011;25154;-33.684;151.102;2023-01-04T22:46:56;13.45;;;2.28;;
39452;SDS011;25154;-33.684;151.102;2023-01-04T22:51:58;9.23;;;1.70;;
39452;SDS011;25154;-33.684;151.102;2023-01-04T22:57:01;8.00;;;1.40;;
39452;SDS011;25154;-33.684;151.102;2023-01-04T23:02:03;11.82;;;1.50;;
39452;SDS011;25154;-33.684;151.102;2023-01-04T23:07:07;13.93;;;1.73;;
39452;SDS011;25154;-33.684;151.102;2023-01-04T23:12:11;5.97;;;1.58;;
39452;SDS011;25154;-33.684;151.102;2023-01-04T23:17:13;8.52;;;1.48;;
39452;SDS011;25154;-33.684;151.102;2023-01-04T23:22:16;10.20;;;1.98;;
39452;SDS011;25154;-33.684;151.102;2023-01-04T23:27:18;12.63;;;2.20;;
39452;SDS011;25154;-33.684;151.102;2023-01-04T23:32:22;6.68;;;1.60;;
39452;SDS011;25154;-33.684;151.102;2023-01-04T23:37:24;10.13;;;1.65;;
39452;SDS011;25154;-33.684;151.102;2023-01-04T23:42:27;8.35;;;1.55;;
39452;SDS011;25154;-33.684;151.102;2023-01-04T23:47:29;10.65;;;1.65;;
39452;SDS011;25154;-33.684;151.102;2023-01-04T23:52:31;10.13;;;1.50;;
39452;SDS011;25154;-33.684;151.102;2023-01-04T23:57:34;11.63;;;1.90;;
